This is the latest recevied weather packets stored in our database for station/object GW1544. If no packets are shown the sender has not sent any weather packets the latest 10 day(s).
| Time | Temp. | Humidity | Pressure | Rain* | Wind** | Luminosity | Snow |
|---|---|---|---|---|---|---|---|
| 1777755634 | 12.78° C | 46% | 1022.3 hPa | 0 mm | - | - | - |
| 1777751654 | 13.33° C | 46% | 1022.6 hPa | 0 mm | - | - | - |
| 1777750969 | 13.33° C | 46% | 1023 hPa | 0 mm | - | - | - |
| 1777746280 | 13.89° C | 44% | 1023.3 hPa | 0 mm | - | - | - |
| 1777745574 | 13.89° C | 45% | 1023.3 hPa | 0 mm | - | - | - |
| 1777737984 | 14.44° C | 44% | 1024 hPa | 0 mm | - | - | - |
| 1777735839 | 13.89° C | 44% | 1024.3 hPa | 0 mm | - | - | - |
| 1777735453 | 13.33° C | 44% | 1024.3 hPa | 0 mm | - | - | - |
| 1777734045 | 12.22° C | 57% | 1024.3 hPa | 0 mm | - | - | - |
| 1777732610 | 12.22° C | 58% | 1024.3 hPa | 0 mm | - | - | - |
| 1777727567 | 8.89° C | 83% | 1024.3 hPa | 0 mm | - | - | - |
| 1777726834 | 7.78° C | 83% | 1024.3 hPa | 0 mm | - | - | - |
| 1777723604 | 4.44° C | 97% | 1024.3 hPa | 0 mm | - | - | - |
| 1777722892 | 3.33° C | 98% | 1024.3 hPa | 0 mm | - | - | - |
| 1777722152 | 2.78° C | 98% | 1024.3 hPa | 0 mm | - | - | - |
| 1777717127 | 1.67° C | 97% | 1024 hPa | 0 mm | - | - | - |
| 1777716391 | 1.67° C | 97% | 1024 hPa | 0 mm | - | - | - |
| 1777705945 | 2.22° C | 95% | 1023.7 hPa | 0 mm | - | - | - |
| 1777701647 | 2.78° C | 94% | 1024 hPa | 0 mm | - | - | - |
| 1777701289 | 2.78° C | 94% | 1024.3 hPa | 0 mm | - | - | - |
| 1777699821 | 3.33° C | 93% | 1024.3 hPa | 0 mm | - | - | - |
| 1777698388 | 3.33° C | 92% | 1024.3 hPa | 0 mm | - | - | - |
| 1777695875 | 4.44° C | 90% | 1024.7 hPa | 0 mm | - | - | - |
| 1777691175 | 6.11° C | 84% | 1024.3 hPa | 0 mm | - | - | - |
| 1777681112 | 12.22° C | 62% | 1021.6 hPa | 0 mm | - | - | - |
* Rain since midnight (hover to see other rain measurements)
** Current wind speed in m/s (hover to see current wind gust speed)